Terminal Aerodrome Forecast
Issued by NWS Boston, MA

Current Version | Previous Version | Text Only | Print | Product List | Glossary On
Versions: 1 2 3 4 5 6 7 8 9 10 11 12 13 14 15 16 17 18 19 20
000 FTUS41 KBOX 302320 TAFBDL TAF KBDL 302320Z 0100/0206 19010KT P6SM BKN045 FM010800 VRB03KT P6SM OVC050 FM011300 14004KT P6SM VCSH OVC050 FM011600 14005KT P6SM -RA OVC050 FM012300 10007KT 5SM -RA OVC040 FM020000 10007KT 5SM -RA OVC010 FM020400 07006KT P6SM VCSH OVC010=

USA.gov is the U.S. government's official web portal to all federal, state and local government web resources and services.